<?xml version='1.0' encoding='UTF-8'?>
<gpx version="1.1" creator="https://www.komoot.de" xmlns="http://www.topografix.com/GPX/1/1" xmlns:xsi="http://www.w3.org/2001/XMLSchema-instance" xsi:schemaLocation="http://www.topografix.com/GPX/1/1 http://www.topografix.com/GPX/1/1/gpx.xsd">
  <metadata>
    <name>PW Großhelfendorf 7 km Warngau-Watschler</name>
    <author>
      <link href="https://www.komoot.de">
        <text>komoot</text>
        <type>text/html</type>
      </link>
    </author>
  </metadata>
  <trk>
    <name>PW Großhelfendorf 7 km Warngau-Watschler</name>
    <trkseg>
      <trkpt lat="47.943947" lon="11.791574">
        <ele>639.742431</ele>
        <time>2022-03-10T14:37:28.842Z</time>
      </trkpt>
      <trkpt lat="47.944099" lon="11.791569">
        <ele>639.742431</ele>
        <time>2022-03-10T14:37:44.051Z</time>
      </trkpt>
      <trkpt lat="47.943966" lon="11.791569">
        <ele>639.742431</ele>
        <time>2022-03-10T14:37:57.361Z</time>
      </trkpt>
      <trkpt lat="47.943966" lon="11.791618">
        <ele>639.742431</ele>
        <time>2022-03-10T14:38:00.645Z</time>
      </trkpt>
      <trkpt lat="47.943955" lon="11.791694">
        <ele>639.742431</ele>
        <time>2022-03-10T14:38:05.858Z</time>
      </trkpt>
      <trkpt lat="47.943934" lon="11.791769">
        <ele>639.742431</ele>
        <time>2022-03-10T14:38:11.307Z</time>
      </trkpt>
      <trkpt lat="47.944288" lon="11.792182">
        <ele>639.742431</ele>
        <time>2022-03-10T14:38:56.269Z</time>
      </trkpt>
      <trkpt lat="47.944285" lon="11.792187">
        <ele>639.742431</ele>
        <time>2022-03-10T14:38:56.719Z</time>
      </trkpt>
      <trkpt lat="47.944285" lon="11.792187">
        <ele>639.742431</ele>
        <time>2022-03-10T14:38:56.729Z</time>
      </trkpt>
      <trkpt lat="47.944371" lon="11.792290">
        <ele>639.824799</ele>
        <time>2022-03-10T14:39:07.938Z</time>
      </trkpt>
      <trkpt lat="47.944707" lon="11.792580">
        <ele>640.183568</ele>
        <time>2022-03-10T14:39:47.564Z</time>
      </trkpt>
      <trkpt lat="47.944753" lon="11.792607">
        <ele>640.229259</ele>
        <time>2022-03-10T14:39:52.544Z</time>
      </trkpt>
      <trkpt lat="47.944917" lon="11.792708">
        <ele>640.393252</ele>
        <time>2022-03-10T14:40:10.715Z</time>
      </trkpt>
      <trkpt lat="47.944985" lon="11.792870">
        <ele>640.511631</ele>
        <time>2022-03-10T14:40:23.919Z</time>
      </trkpt>
      <trkpt lat="47.945241" lon="11.792714">
        <ele>640.767231</ele>
        <time>2022-03-10T14:40:52.485Z</time>
      </trkpt>
      <trkpt lat="47.945442" lon="11.792589">
        <ele>640.968510</ele>
        <time>2022-03-10T14:41:15.149Z</time>
      </trkpt>
      <trkpt lat="47.945727" lon="11.792381">
        <ele>641.261758</ele>
        <time>2022-03-10T14:41:48.556Z</time>
      </trkpt>
      <trkpt lat="47.945894" lon="11.792520">
        <ele>641.432536</ele>
        <time>2022-03-10T14:42:08.820Z</time>
      </trkpt>
      <trkpt lat="47.946269" lon="11.793571">
        <ele>642.038199</ele>
        <time>2022-03-10T14:43:32.492Z</time>
      </trkpt>
      <trkpt lat="47.946264" lon="11.793609">
        <ele>642.057896</ele>
        <time>2022-03-10T14:43:35.124Z</time>
      </trkpt>
      <trkpt lat="47.946255" lon="11.793698">
        <ele>642.103675</ele>
        <time>2022-03-10T14:43:41.318Z</time>
      </trkpt>
      <trkpt lat="47.946244" lon="11.793779">
        <ele>642.145711</ele>
        <time>2022-03-10T14:43:46.952Z</time>
      </trkpt>
      <trkpt lat="47.946282" lon="11.793784">
        <ele>642.174677</ele>
        <time>2022-03-10T14:43:50.782Z</time>
      </trkpt>
      <trkpt lat="47.946331" lon="11.793791">
        <ele>642.212054</ele>
        <time>2022-03-10T14:43:55.855Z</time>
      </trkpt>
      <trkpt lat="47.946458" lon="11.793807">
        <ele>642.308830</ele>
        <time>2022-03-10T14:44:08.811Z</time>
      </trkpt>
      <trkpt lat="47.946591" lon="11.793818">
        <ele>642.409975</ele>
        <time>2022-03-10T14:44:22.294Z</time>
      </trkpt>
      <trkpt lat="47.946918" lon="11.793844">
        <ele>642.658624</ele>
        <time>2022-03-10T14:44:55.469Z</time>
      </trkpt>
      <trkpt lat="47.947048" lon="11.793867">
        <ele>642.758027</ele>
        <time>2022-03-10T14:45:08.686Z</time>
      </trkpt>
      <trkpt lat="47.947139" lon="11.793794">
        <ele>642.713101</ele>
        <time>2022-03-10T14:45:18.961Z</time>
      </trkpt>
      <trkpt lat="47.947273" lon="11.793930">
        <ele>642.604886</ele>
        <time>2022-03-10T14:45:35.237Z</time>
      </trkpt>
      <trkpt lat="47.948581" lon="11.794289">
        <ele>641.716681</ele>
        <time>2022-03-10T14:47:50.528Z</time>
      </trkpt>
      <trkpt lat="47.950533" lon="11.794542">
        <ele>639.800703</ele>
        <time>2022-03-10T14:51:11.516Z</time>
      </trkpt>
      <trkpt lat="47.951714" lon="11.795376">
        <ele>639.977833</ele>
        <time>2022-03-10T14:53:22.346Z</time>
      </trkpt>
      <trkpt lat="47.951919" lon="11.795468">
        <ele>640.018641</ele>
        <time>2022-03-10T14:53:44.313Z</time>
      </trkpt>
      <trkpt lat="47.951995" lon="11.795502">
        <ele>640.033766</ele>
        <time>2022-03-10T14:53:52.452Z</time>
      </trkpt>
      <trkpt lat="47.952054" lon="11.797515">
        <ele>641.337585</ele>
        <time>2022-03-10T14:56:13.153Z</time>
      </trkpt>
      <trkpt lat="47.952036" lon="11.798615">
        <ele>642.184562</ele>
        <time>2022-03-10T14:57:30.349Z</time>
      </trkpt>
      <trkpt lat="47.952033" lon="11.798814">
        <ele>642.336278</ele>
        <time>2022-03-10T14:57:44.187Z</time>
      </trkpt>
      <trkpt lat="47.951937" lon="11.799497">
        <ele>642.868202</ele>
        <time>2022-03-10T14:58:32.516Z</time>
      </trkpt>
      <trkpt lat="47.953042" lon="11.799412">
        <ele>644.127394</ele>
        <time>2022-03-10T15:00:26.647Z</time>
      </trkpt>
      <trkpt lat="47.953761" lon="11.799357">
        <ele>646.994277</ele>
        <time>2022-03-10T15:01:43.949Z</time>
      </trkpt>
      <trkpt lat="47.953886" lon="11.800305">
        <ele>649.744517</ele>
        <time>2022-03-10T15:02:59.144Z</time>
      </trkpt>
      <trkpt lat="47.953897" lon="11.801201">
        <ele>652.493337</ele>
        <time>2022-03-10T15:04:13.824Z</time>
      </trkpt>
      <trkpt lat="47.953959" lon="11.802043">
        <ele>655.958489</ele>
        <time>2022-03-10T15:05:24.000Z</time>
      </trkpt>
      <trkpt lat="47.954009" lon="11.802230">
        <ele>656.782166</ele>
        <time>2022-03-10T15:05:41.070Z</time>
      </trkpt>
      <trkpt lat="47.953923" lon="11.802815">
        <ele>659.232217</ele>
        <time>2022-03-10T15:06:30.070Z</time>
      </trkpt>
      <trkpt lat="47.954017" lon="11.803094">
        <ele>660.509813</ele>
        <time>2022-03-10T15:06:55.066Z</time>
      </trkpt>
      <trkpt lat="47.954038" lon="11.803416">
        <ele>661.833257</ele>
        <time>2022-03-10T15:07:20.924Z</time>
      </trkpt>
      <trkpt lat="47.954207" lon="11.803705">
        <ele>662.850704</ele>
        <time>2022-03-10T15:07:51.285Z</time>
      </trkpt>
      <trkpt lat="47.954297" lon="11.804001">
        <ele>662.901712</ele>
        <time>2022-03-10T15:08:15.620Z</time>
      </trkpt>
      <trkpt lat="47.954577" lon="11.804381">
        <ele>662.990360</ele>
        <time>2022-03-10T15:08:57.277Z</time>
      </trkpt>
      <trkpt lat="47.954875" lon="11.805444">
        <ele>663.171176</ele>
        <time>2022-03-10T15:10:15.652Z</time>
      </trkpt>
      <trkpt lat="47.954904" lon="11.805722">
        <ele>663.215322</ele>
        <time>2022-03-10T15:10:35.900Z</time>
      </trkpt>
      <trkpt lat="47.954826" lon="11.806076">
        <ele>662.750990</ele>
        <time>2022-03-10T15:11:03.090Z</time>
      </trkpt>
      <trkpt lat="47.954667" lon="11.806892">
        <ele>659.943865</ele>
        <time>2022-03-10T15:12:05.961Z</time>
      </trkpt>
      <trkpt lat="47.954724" lon="11.807539">
        <ele>657.788322</ele>
        <time>2022-03-10T15:12:53.965Z</time>
      </trkpt>
      <trkpt lat="47.954976" lon="11.808340">
        <ele>654.865123</ele>
        <time>2022-03-10T15:14:00.215Z</time>
      </trkpt>
      <trkpt lat="47.955062" lon="11.808812">
        <ele>653.384616</ele>
        <time>2022-03-10T15:14:36.808Z</time>
      </trkpt>
      <trkpt lat="47.954972" lon="11.809413">
        <ele>651.593960</ele>
        <time>2022-03-10T15:15:22.572Z</time>
      </trkpt>
      <trkpt lat="47.955080" lon="11.810019">
        <ele>649.770598</ele>
        <time>2022-03-10T15:16:08.360Z</time>
      </trkpt>
      <trkpt lat="47.955051" lon="11.810168">
        <ele>649.319433</ele>
        <time>2022-03-10T15:16:19.630Z</time>
      </trkpt>
      <trkpt lat="47.955084" lon="11.810406">
        <ele>648.612735</ele>
        <time>2022-03-10T15:16:37.199Z</time>
      </trkpt>
      <trkpt lat="47.955199" lon="11.810647">
        <ele>647.752311</ele>
        <time>2022-03-10T15:16:58.169Z</time>
      </trkpt>
      <trkpt lat="47.955414" lon="11.810921">
        <ele>646.537650</ele>
        <time>2022-03-10T15:17:27.862Z</time>
      </trkpt>
      <trkpt lat="47.955865" lon="11.811277">
        <ele>644.943782</ele>
        <time>2022-03-10T15:18:22.232Z</time>
      </trkpt>
      <trkpt lat="47.956067" lon="11.811565">
        <ele>644.071167</ele>
        <time>2022-03-10T15:18:52.067Z</time>
      </trkpt>
      <trkpt lat="47.956373" lon="11.811967">
        <ele>642.797760</ele>
        <time>2022-03-10T15:19:35.292Z</time>
      </trkpt>
      <trkpt lat="47.956493" lon="11.812322">
        <ele>641.965707</ele>
        <time>2022-03-10T15:20:03.541Z</time>
      </trkpt>
      <trkpt lat="47.956441" lon="11.812785">
        <ele>640.983407</ele>
        <time>2022-03-10T15:20:37.067Z</time>
      </trkpt>
      <trkpt lat="47.956500" lon="11.812967">
        <ele>640.518663</ele>
        <time>2022-03-10T15:20:51.652Z</time>
      </trkpt>
      <trkpt lat="47.956525" lon="11.813042">
        <ele>640.324640</ele>
        <time>2022-03-10T15:20:57.728Z</time>
      </trkpt>
      <trkpt lat="47.956741" lon="11.813372">
        <ele>639.255967</ele>
        <time>2022-03-10T15:21:31.021Z</time>
      </trkpt>
      <trkpt lat="47.956819" lon="11.813632">
        <ele>638.596167</ele>
        <time>2022-03-10T15:21:51.616Z</time>
      </trkpt>
      <trkpt lat="47.956705" lon="11.816860">
        <ele>631.297238</ele>
        <time>2022-03-10T15:25:43.179Z</time>
      </trkpt>
      <trkpt lat="47.956707" lon="11.817085">
        <ele>630.803068</ele>
        <time>2022-03-10T15:25:59.291Z</time>
      </trkpt>
      <trkpt lat="47.956644" lon="11.817419">
        <ele>630.041024</ele>
        <time>2022-03-10T15:26:24.282Z</time>
      </trkpt>
      <trkpt lat="47.956308" lon="11.817150">
        <ele>628.813992</ele>
        <time>2022-03-10T15:27:05.131Z</time>
      </trkpt>
      <trkpt lat="47.955362" lon="11.816572">
        <ele>627.355361</ele>
        <time>2022-03-10T15:28:52.710Z</time>
      </trkpt>
      <trkpt lat="47.954978" lon="11.816247">
        <ele>626.725468</ele>
        <time>2022-03-10T15:29:37.762Z</time>
      </trkpt>
      <trkpt lat="47.954637" lon="11.815852">
        <ele>626.657319</ele>
        <time>2022-03-10T15:30:22.392Z</time>
      </trkpt>
      <trkpt lat="47.954445" lon="11.816011">
        <ele>627.447430</ele>
        <time>2022-03-10T15:30:45.720Z</time>
      </trkpt>
      <trkpt lat="47.954068" lon="11.816372">
        <ele>629.059175</ele>
        <time>2022-03-10T15:31:33.786Z</time>
      </trkpt>
      <trkpt lat="47.953899" lon="11.816425">
        <ele>629.680632</ele>
        <time>2022-03-10T15:31:54.418Z</time>
      </trkpt>
      <trkpt lat="47.953747" lon="11.816386">
        <ele>630.235658</ele>
        <time>2022-03-10T15:32:10.788Z</time>
      </trkpt>
      <trkpt lat="47.953241" lon="11.815994">
        <ele>632.287132</ele>
        <time>2022-03-10T15:33:19.266Z</time>
      </trkpt>
      <trkpt lat="47.952734" lon="11.815450">
        <ele>635.464254</ele>
        <time>2022-03-10T15:34:34.622Z</time>
      </trkpt>
      <trkpt lat="47.952161" lon="11.815245">
        <ele>638.683083</ele>
        <time>2022-03-10T15:35:47.034Z</time>
      </trkpt>
      <trkpt lat="47.951743" lon="11.815039">
        <ele>641.087735</ele>
        <time>2022-03-10T15:36:39.096Z</time>
      </trkpt>
      <trkpt lat="47.951537" lon="11.815039">
        <ele>642.213086</ele>
        <time>2022-03-10T15:37:02.563Z</time>
      </trkpt>
      <trkpt lat="47.951526" lon="11.815039">
        <ele>642.273177</ele>
        <time>2022-03-10T15:37:03.794Z</time>
      </trkpt>
      <trkpt lat="47.950979" lon="11.815291">
        <ele>643.115223</ele>
        <time>2022-03-10T15:38:08.131Z</time>
      </trkpt>
      <trkpt lat="47.950882" lon="11.815248">
        <ele>643.222693</ele>
        <time>2022-03-10T15:38:18.739Z</time>
      </trkpt>
      <trkpt lat="47.950716" lon="11.815173">
        <ele>643.406899</ele>
        <time>2022-03-10T15:38:37.279Z</time>
      </trkpt>
      <trkpt lat="47.949559" lon="11.815238">
        <ele>644.263856</ele>
        <time>2022-03-10T15:40:34.027Z</time>
      </trkpt>
      <trkpt lat="47.949194" lon="11.815529">
        <ele>643.695580</ele>
        <time>2022-03-10T15:41:17.793Z</time>
      </trkpt>
      <trkpt lat="47.948985" lon="11.815515">
        <ele>643.408255</ele>
        <time>2022-03-10T15:41:39.762Z</time>
      </trkpt>
      <trkpt lat="47.948710" lon="11.815449">
        <ele>643.025728</ele>
        <time>2022-03-10T15:42:08.949Z</time>
      </trkpt>
      <trkpt lat="47.947404" lon="11.814895">
        <ele>642.320664</ele>
        <time>2022-03-10T15:44:26.867Z</time>
      </trkpt>
      <trkpt lat="47.947394" lon="11.812652">
        <ele>643.498749</ele>
        <time>2022-03-10T15:47:03.227Z</time>
      </trkpt>
      <trkpt lat="47.947342" lon="11.811949">
        <ele>644.343916</ele>
        <time>2022-03-10T15:47:54.126Z</time>
      </trkpt>
      <trkpt lat="47.947504" lon="11.810820">
        <ele>645.723640</ele>
        <time>2022-03-10T15:49:16.689Z</time>
      </trkpt>
      <trkpt lat="47.947958" lon="11.809604">
        <ele>648.641599</ele>
        <time>2022-03-10T15:50:56.112Z</time>
      </trkpt>
      <trkpt lat="47.948352" lon="11.808191">
        <ele>652.311956</ele>
        <time>2022-03-10T15:52:54.334Z</time>
      </trkpt>
      <trkpt lat="47.949434" lon="11.806595">
        <ele>660.930555</ele>
        <time>2022-03-10T15:55:56.522Z</time>
      </trkpt>
      <trkpt lat="47.950261" lon="11.805212">
        <ele>666.654610</ele>
        <time>2022-03-10T15:58:28.522Z</time>
      </trkpt>
      <trkpt lat="47.950320" lon="11.805039">
        <ele>667.193873</ele>
        <time>2022-03-10T15:58:43.356Z</time>
      </trkpt>
      <trkpt lat="47.950040" lon="11.804215">
        <ele>669.760473</ele>
        <time>2022-03-10T15:59:50.962Z</time>
      </trkpt>
      <trkpt lat="47.949110" lon="11.805550">
        <ele>669.122969</ele>
        <time>2022-03-10T16:02:00.577Z</time>
      </trkpt>
      <trkpt lat="47.948600" lon="11.805675">
        <ele>668.526150</ele>
        <time>2022-03-10T16:02:56.005Z</time>
      </trkpt>
      <trkpt lat="47.948281" lon="11.806092">
        <ele>667.358074</ele>
        <time>2022-03-10T16:03:42.027Z</time>
      </trkpt>
      <trkpt lat="47.947780" lon="11.806748">
        <ele>664.923668</ele>
        <time>2022-03-10T16:04:54.196Z</time>
      </trkpt>
      <trkpt lat="47.947356" lon="11.806683">
        <ele>663.366581</ele>
        <time>2022-03-10T16:05:40.256Z</time>
      </trkpt>
      <trkpt lat="47.947103" lon="11.806953">
        <ele>662.230478</ele>
        <time>2022-03-10T16:06:13.847Z</time>
      </trkpt>
      <trkpt lat="47.945954" lon="11.806514">
        <ele>659.107087</ele>
        <time>2022-03-10T16:08:18.879Z</time>
      </trkpt>
      <trkpt lat="47.945381" lon="11.805986">
        <ele>657.413598</ele>
        <time>2022-03-10T16:09:29.105Z</time>
      </trkpt>
      <trkpt lat="47.944860" lon="11.805379">
        <ele>655.964983</ele>
        <time>2022-03-10T16:10:38.198Z</time>
      </trkpt>
      <trkpt lat="47.943953" lon="11.805286">
        <ele>654.002998</ele>
        <time>2022-03-10T16:12:13.669Z</time>
      </trkpt>
      <trkpt lat="47.943433" lon="11.804847">
        <ele>652.912036</ele>
        <time>2022-03-10T16:13:15.567Z</time>
      </trkpt>
      <trkpt lat="47.943270" lon="11.804661">
        <ele>652.602185</ele>
        <time>2022-03-10T16:13:36.880Z</time>
      </trkpt>
      <trkpt lat="47.943187" lon="11.804567">
        <ele>652.444845</ele>
        <time>2022-03-10T16:13:47.618Z</time>
      </trkpt>
      <trkpt lat="47.943150" lon="11.804684">
        <ele>652.313953</ele>
        <time>2022-03-10T16:13:56.670Z</time>
      </trkpt>
      <trkpt lat="47.943116" lon="11.804607">
        <ele>652.220653</ele>
        <time>2022-03-10T16:14:03.035Z</time>
      </trkpt>
      <trkpt lat="47.943077" lon="11.804456">
        <ele>652.056930</ele>
        <time>2022-03-10T16:14:14.267Z</time>
      </trkpt>
      <trkpt lat="47.943039" lon="11.803917">
        <ele>651.508629</ele>
        <time>2022-03-10T16:14:51.927Z</time>
      </trkpt>
      <trkpt lat="47.943090" lon="11.803902">
        <ele>651.430126</ele>
        <time>2022-03-10T16:14:57.238Z</time>
      </trkpt>
      <trkpt lat="47.943145" lon="11.803880">
        <ele>651.344132</ele>
        <time>2022-03-10T16:15:03.089Z</time>
      </trkpt>
      <trkpt lat="47.943108" lon="11.803750">
        <ele>651.201237</ele>
        <time>2022-03-10T16:15:12.862Z</time>
      </trkpt>
      <trkpt lat="47.943289" lon="11.803653">
        <ele>650.910802</ele>
        <time>2022-03-10T16:15:32.537Z</time>
      </trkpt>
      <trkpt lat="47.943256" lon="11.803175">
        <ele>650.503034</ele>
        <time>2022-03-10T16:16:05.283Z</time>
      </trkpt>
      <trkpt lat="47.943182" lon="11.802831">
        <ele>650.260376</ele>
        <time>2022-03-10T16:16:29.754Z</time>
      </trkpt>
      <trkpt lat="47.942933" lon="11.802158">
        <ele>649.744013</ele>
        <time>2022-03-10T16:17:21.582Z</time>
      </trkpt>
      <trkpt lat="47.943060" lon="11.801304">
        <ele>649.156485</ele>
        <time>2022-03-10T16:18:21.540Z</time>
      </trkpt>
      <trkpt lat="47.943267" lon="11.797555">
        <ele>644.836750</ele>
        <time>2022-03-10T16:22:43.492Z</time>
      </trkpt>
      <trkpt lat="47.943277" lon="11.797279">
        <ele>644.504468</ele>
        <time>2022-03-10T16:23:02.661Z</time>
      </trkpt>
      <trkpt lat="47.943239" lon="11.797146">
        <ele>644.330645</ele>
        <time>2022-03-10T16:23:12.790Z</time>
      </trkpt>
      <trkpt lat="47.943299" lon="11.796109">
        <ele>643.079362</ele>
        <time>2022-03-10T16:24:25.058Z</time>
      </trkpt>
      <trkpt lat="47.943286" lon="11.795570">
        <ele>642.430977</ele>
        <time>2022-03-10T16:25:02.553Z</time>
      </trkpt>
      <trkpt lat="47.943279" lon="11.795496">
        <ele>642.347601</ele>
        <time>2022-03-10T16:25:07.794Z</time>
      </trkpt>
      <trkpt lat="47.943220" lon="11.794460">
        <ele>641.474925</ele>
        <time>2022-03-10T16:26:19.803Z</time>
      </trkpt>
      <trkpt lat="47.943213" lon="11.794231">
        <ele>641.282520</ele>
        <time>2022-03-10T16:26:35.584Z</time>
      </trkpt>
      <trkpt lat="47.943209" lon="11.794095">
        <ele>641.168262</ele>
        <time>2022-03-10T16:26:44.970Z</time>
      </trkpt>
      <trkpt lat="47.943199" lon="11.793931">
        <ele>641.030044</ele>
        <time>2022-03-10T16:26:56.366Z</time>
      </trkpt>
      <trkpt lat="47.943389" lon="11.793815">
        <ele>640.772839</ele>
        <time>2022-03-10T16:27:17.351Z</time>
      </trkpt>
      <trkpt lat="47.943388" lon="11.793639">
        <ele>640.625113</ele>
        <time>2022-03-10T16:27:29.485Z</time>
      </trkpt>
      <trkpt lat="47.943530" lon="11.793235">
        <ele>640.242184</ele>
        <time>2022-03-10T16:28:00.537Z</time>
      </trkpt>
      <trkpt lat="47.943595" lon="11.793016">
        <ele>640.108911</ele>
        <time>2022-03-10T16:28:16.769Z</time>
      </trkpt>
      <trkpt lat="47.943615" lon="11.792503">
        <ele>640.108911</ele>
        <time>2022-03-10T16:28:51.633Z</time>
      </trkpt>
      <trkpt lat="47.943611" lon="11.792326">
        <ele>640.108911</ele>
        <time>2022-03-10T16:29:03.636Z</time>
      </trkpt>
      <trkpt lat="47.943638" lon="11.792105">
        <ele>640.108911</ele>
        <time>2022-03-10T16:29:18.888Z</time>
      </trkpt>
      <trkpt lat="47.943930" lon="11.791762">
        <ele>640.108911</ele>
        <time>2022-03-10T16:29:56.202Z</time>
      </trkpt>
      <trkpt lat="47.943929" lon="11.791762">
        <ele>640.108911</ele>
        <time>2022-03-10T16:29:56.387Z</time>
      </trkpt>
      <trkpt lat="47.943930" lon="11.791762">
        <ele>640.108911</ele>
        <time>2022-03-10T16:29:56.516Z</time>
      </trkpt>
      <trkpt lat="47.943947" lon="11.791574">
        <ele>640.108911</ele>
        <time>2022-03-10T16:30:09.329Z</time>
      </trkpt>
    </trkseg>
  </trk>
</gpx>